Time;durP1;ratioP1;P1;durP2;ratioP2;P2;SDS_P1;SDS_P2;PMS_P1;PMS_P2;Temp;Humidity;BMP_temperature;BMP_pressure;BME280_temperature;BME280_humidity;BME280_pressure;Samples;Min_cycle;Max_cycle;Signal;HPM_P1;HPM_P2
2022/03/22 00:02:23;;;;;;;14.73;5.05;;;4.70;88.80;4.20;100352.00;;;;4888375;28;92832;-63
2022/03/22 00:04:50;;;;;;;15.20;5.78;;;4.70;89.00;4.20;100340.00;;;;4890304;28;93307;-62
2022/03/22 00:07:16;;;;;;;15.18;5.30;;;4.70;89.30;4.10;100341.00;;;;4891212;28;92123;-63
2022/03/22 00:09:42;;;;;;;14.95;6.38;;;4.60;89.50;4.00;100342.00;;;;4890489;28;92902;-63
2022/03/22 00:12:08;;;;;;;13.60;4.95;;;4.50;89.80;4.00;100338.00;;;;4894558;28;92336;-63
2022/03/22 00:14:34;;;;;;;13.15;5.15;;;4.40;90.00;3.90;100340.00;;;;4896764;28;93218;-64
2022/03/22 00:17:03;;;;;;;21.38;6.05;;;4.40;90.10;3.90;100343.00;;;;4896886;28;92092;-62
2022/03/22 00:19:29;;;;;;;15.75;5.95;;;4.40;90.10;4.00;100339.00;;;;4879633;28;92673;-63
2022/03/22 00:21:55;;;;;;;17.42;5.70;;;4.50;90.10;3.90;100342.00;;;;4896238;28;91436;-63
2022/03/22 00:24:21;;;;;;;14.73;5.70;;;4.50;90.20;3.90;100339.00;;;;4888497;28;92676;-63
2022/03/22 00:26:48;;;;;;;15.95;6.07;;;4.40;90.20;3.80;100343.00;;;;4896549;28;92895;-64
2022/03/22 00:29:14;;;;;;;19.15;6.50;;;4.40;90.30;3.80;100334.00;;;;4885235;28;94009;-63
2022/03/22 00:31:41;;;;;;;19.35;6.43;;;4.30;90.40;3.70;100336.00;;;;4894258;28;93377;-63
2022/03/22 00:34:07;;;;;;;17.17;5.45;;;4.20;90.50;3.80;100344.00;;;;4899740;28;92056;-63
2022/03/22 00:36:34;;;;;;;20.52;6.60;;;4.30;90.40;3.70;100339.00;;;;4894832;28;92075;-62
2022/03/22 00:39:02;;;;;;;14.68;5.88;;;4.30;90.40;3.70;100333.00;;;;4896281;28;92632;-62
2022/03/22 00:41:28;;;;;;;19.42;6.65;;;4.20;90.40;3.70;100336.00;;;;4899509;28;93547;-63
2022/03/22 00:43:56;;;;;;;15.75;6.03;;;4.10;90.50;3.60;100333.00;;;;4897661;28;92123;-63
2022/03/22 00:46:22;;;;;;;17.80;7.32;;;4.10;90.50;3.60;100332.00;;;;4895235;28;91380;-63
2022/03/22 00:48:48;;;;;;;17.20;7.05;;;4.10;90.40;3.60;100324.00;;;;4894686;28;93540;-63
2022/03/22 00:51:15;;;;;;;18.67;6.88;;;4.00;90.50;3.50;100319.00;;;;4896463;28;92239;-63
2022/03/22 00:53:41;;;;;;;17.33;8.05;;;4.00;90.60;3.50;100325.00;;;;4895427;28;92900;-62
2022/03/22 00:56:08;;;;;;;18.42;7.85;;;4.00;90.80;3.40;100300.00;;;;4897750;28;92070;-64
2022/03/22 00:58:35;;;;;;;17.85;7.05;;;3.80;90.90;3.30;100312.00;;;;4895910;28;92554;-64
2022/03/22 01:01:02;;;;;;;16.50;6.72;;;3.70;90.90;3.20;100303.00;;;;4889822;28;92117;-63
2022/03/22 01:03:28;;;;;;;17.35;6.68;;;3.70;91.30;3.10;100300.00;;;;4897773;28;92019;-63
2022/03/22 01:05:56;;;;;;;18.25;7.20;;;3.60;91.60;3.10;100300.00;;;;4886184;28;92781;-63
2022/03/22 01:08:23;;;;;;;17.85;7.13;;;3.40;91.70;3.00;100307.00;;;;4881309;28;92721;-62
2022/03/22 01:10:52;;;;;;;16.13;7.45;;;3.40;92.00;2.90;100304.00;;;;4894495;28;93544;-63
2022/03/22 01:13:25;;;;;;;20.08;8.30;;;3.30;92.10;2.90;100308.00;;;;4893722;28;92491;-63
2022/03/22 01:15:51;;;;;;;16.00;6.63;;;3.30;92.10;2.80;100304.00;;;;4895227;28;92115;-62
2022/03/22 01:18:18;;;;;;;16.17;7.20;;;3.20;92.30;2.80;100305.00;;;;4894268;28;94824;-63
2022/03/22 01:20:49;;;;;;;12.50;6.03;;;3.20;92.20;2.70;100307.00;;;;4894139;28;93742;-63
2022/03/22 01:23:16;;;;;;;15.27;7.38;;;3.10;92.10;2.70;100299.00;;;;4884464;28;92402;-62
2022/03/22 01:25:43;;;;;;;11.95;6.93;;;3.10;92.00;2.70;100303.00;;;;4893402;28;92072;-63
2022/03/22 01:28:12;;;;;;;13.63;6.32;;;3.10;91.90;2.60;100308.00;;;;4892720;28;93620;-63
2022/03/22 01:30:39;;;;;;;12.07;6.45;;;3.00;92.10;2.50;100302.00;;;;4890771;28;92461;-62
2022/03/22 01:33:06;;;;;;;16.42;6.88;;;3.00;92.00;2.50;100300.00;;;;4881655;28;92194;-63
2022/03/22 01:35:33;;;;;;;15.30;6.43;;;3.00;92.10;2.40;100303.00;;;;4895470;28;91447;-63
2022/03/22 01:37:59;;;;;;;14.40;6.05;;;2.90;92.30;2.40;100302.00;;;;4893316;28;93791;-62
2022/03/22 01:40:28;;;;;;;17.92;7.30;;;2.90;92.00;2.50;100304.00;;;;4897564;28;92458;-62
2022/03/22 01:42:54;;;;;;;18.77;7.03;;;3.00;91.80;2.40;100307.00;;;;4893590;28;93019;-62
2022/03/22 01:45:21;;;;;;;18.60;6.72;;;2.90;91.90;2.40;100304.00;;;;4891387;28;93178;-62
2022/03/22 01:47:49;;;;;;;13.88;6.32;;;2.80;91.90;2.30;100302.00;;;;4891661;28;93721;-62
2022/03/22 01:50:19;;;;;;;12.90;6.55;;;2.80;92.10;2.30;100301.00;;;;4886124;28;92295;-63
2022/03/22 01:52:46;;;;;;;12.60;6.13;;;2.80;92.00;2.20;100298.00;;;;4891715;28;92984;-62
2022/03/22 01:55:17;;;;;;;14.95;6.80;;;2.70;92.00;2.20;100304.00;;;;4880932;28;92686;-62
2022/03/22 01:57:43;;;;;;;14.20;6.53;;;2.70;92.10;2.10;100290.00;;;;4886658;28;93813;-64
2022/03/22 02:00:15;;;;;;;12.82;6.95;;;2.70;92.10;2.10;100291.00;;;;4894795;28;93615;-63
2022/03/22 02:08:18;;;;;;;15.40;7.25;;;2.60;92.40;2.00;100285.00;;;;4890180;28;93540;-62
2022/03/22 02:10:46;;;;;;;15.52;7.40;;;2.60;92.60;1.90;100284.00;;;;4891510;28;93233;-63
2022/03/22 02:13:13;;;;;;;13.02;7.82;;;2.40;92.70;1.70;100273.00;;;;4895207;28;92070;-62
2022/03/22 02:15:39;;;;;;;15.48;8.10;;;2.30;93.00;1.60;100281.00;;;;4891012;28;92184;-62
2022/03/22 02:18:06;;;;;;;17.73;9.15;;;2.20;93.20;1.60;100276.00;;;;4895570;28;93858;-63
2022/03/22 02:20:32;;;;;;;18.38;9.60;;;2.20;93.40;1.60;100281.00;;;;4893715;28;92698;-63
2022/03/22 02:23:08;;;;;;;19.13;8.40;;;2.10;93.50;1.60;100284.00;;;;4881558;28;92449;-63
2022/03/22 02:25:35;;;;;;;16.35;8.73;;;2.10;93.50;1.50;100278.00;;;;4878603;28;91185;-64
2022/03/22 02:28:03;;;;;;;17.23;8.10;;;2.10;93.60;1.50;100283.00;;;;4890528;28;92607;-62
2022/03/22 02:30:30;;;;;;;18.85;8.82;;;2.00;93.60;1.40;100276.00;;;;4892811;28;92492;-62
2022/03/22 02:33:01;;;;;;;16.13;7.88;;;2.00;93.80;1.40;100272.00;;;;4880695;28;93072;-62
2022/03/22 02:35:30;;;;;;;16.85;8.68;;;2.00;93.80;1.40;100271.00;;;;4883147;28;92492;-63
2022/03/22 02:37:57;;;;;;;17.27;8.95;;;2.00;93.70;1.30;100266.00;;;;4890255;28;92207;-63
2022/03/22 02:40:26;;;;;;;17.77;9.18;;;1.90;93.80;1.30;100261.00;;;;4871035;28;92447;-63
2022/03/22 02:42:54;;;;;;;19.38;9.25;;;1.90;93.90;1.20;100266.00;;;;4891722;28;91992;-63
2022/03/22 02:45:22;;;;;;;19.08;9.07;;;1.80;94.00;1.30;100270.00;;;;4879153;28;92891;-62
2022/03/22 02:47:50;;;;;;;16.45;9.48;;;1.80;93.90;1.30;100261.00;;;;4890983;28;93887;-63
2022/03/22 02:50:17;;;;;;;16.90;9.32;;;1.90;93.80;1.30;100258.00;;;;4891405;28;92254;-63
2022/03/22 02:52:45;;;;;;;21.33;9.57;;;1.90;94.00;1.20;100253.00;;;;4880254;28;92231;-63
2022/03/22 02:55:12;;;;;;;20.02;9.30;;;1.80;94.10;1.10;100252.00;;;;4874645;28;92943;-63
2022/03/22 02:57:40;;;;;;;17.48;9.13;;;1.60;94.30;1.00;100255.00;;;;4878977;28;94743;-63
2022/03/22 03:00:10;;;;;;;15.43;8.23;;;1.50;94.40;0.90;100247.00;;;;4895795;28;94400;-63
2022/03/22 03:02:48;;;;;;;16.23;8.52;;;1.50;94.60;0.90;100246.00;;;;4889109;28;92052;-63
2022/03/22 03:05:15;;;;;;;16.48;8.60;;;1.50;94.40;0.80;100263.00;;;;4894378;28;92409;-63
2022/03/22 03:07:41;;;;;;;17.25;8.77;;;1.40;94.40;0.80;100251.00;;;;4896722;28;94148;-62
2022/03/22 03:10:09;;;;;;;18.48;8.23;;;1.40;94.60;0.80;100254.00;;;;4883274;28;92232;-63
2022/03/22 03:12:36;;;;;;;19.88;9.32;;;1.40;94.60;0.90;100259.00;;;;4894277;28;92050;-63
2022/03/22 03:15:05;;;;;;;16.75;9.57;;;1.50;94.50;1.00;100254.00;;;;4899860;28;91357;-63
2022/03/22 03:17:33;;;;;;;21.08;9.15;;;1.60;94.40;1.10;100258.00;;;;4889679;28;92782;-63
2022/03/22 03:19:59;;;;;;;19.30;9.52;;;1.70;94.30;1.00;100254.00;;;;4891699;28;92404;-63
2022/03/22 03:22:30;;;;;;;20.38;9.23;;;1.60;94.30;0.90;100257.00;;;;4883592;28;93481;-63
2022/03/22 03:24:56;;;;;;;15.65;8.10;;;1.50;94.40;0.80;100248.00;;;;4899252;28;92273;-63
2022/03/22 03:27:22;;;;;;;15.23;7.97;;;1.40;94.50;0.70;100245.00;;;;4888205;28;92870;-63
2022/03/22 03:29:49;;;;;;;18.58;8.30;;;1.30;94.60;0.70;100249.00;;;;4881976;28;92265;-63
2022/03/22 03:32:15;;;;;;;14.45;8.10;;;1.20;94.50;0.60;100235.00;;;;4887422;28;92045;-63
2022/03/22 03:34:42;;;;;;;18.20;8.10;;;1.10;94.50;0.50;100237.00;;;;4888234;28;92029;-63
2022/03/22 03:37:09;;;;;;;17.40;8.18;;;1.10;94.90;0.40;100234.00;;;;4885049;28;93760;-65
2022/03/22 03:39:38;;;;;;;16.98;8.07;;;1.00;95.00;0.50;100238.00;;;;4889615;28;93800;-65
2022/03/22 03:42:06;;;;;;;18.40;8.07;;;1.00;95.20;0.90;100232.00;;;;4889496;28;92109;-63
2022/03/22 03:47:25;;;;;;;17.00;7.68;;;1.40;94.60;1.80;100242.00;;;;4888757;28;93766;-64
2022/03/22 03:50:00;;;;;;;14.98;8.40;;;1.70;94.20;2.10;100250.00;;;;4879840;28;93853;-63
2022/03/22 03:52:33;;;;;;;16.13;7.90;;;2.00;93.80;2.50;100233.00;;;;4891771;28;93384;-63
2022/03/22 03:55:01;;;;;;;15.27;8.20;;;2.20;93.40;2.80;100233.00;;;;4888147;28;92036;-64
2022/03/22 03:57:28;;;;;;;13.00;7.47;;;2.40;93.10;3.00;100236.00;;;;4879236;28;93575;-63
2022/03/22 03:59:56;;;;;;;15.20;8.32;;;2.60;92.80;3.20;100236.00;;;;4890643;28;92412;-63
2022/03/22 04:02:23;;;;;;;17.23;8.05;;;2.60;92.50;3.40;100238.00;;;;4881454;28;92506;-64
2022/03/22 04:04:53;;;;;;;18.08;8.57;;;2.80;92.20;3.50;100236.00;;;;4880681;28;91646;-65
2022/03/22 04:07:25;;;;;;;18.48;8.68;;;2.90;92.10;3.70;100227.00;;;;4856968;28;94222;-64
2022/03/22 04:09:56;;;;;;;15.27;7.50;;;3.10;91.90;3.80;100228.00;;;;4892307;28;92571;-64
2022/03/22 04:12:23;;;;;;;14.88;7.25;;;3.10;91.50;3.90;100229.00;;;;4861593;28;93073;-63
2022/03/22 04:14:51;;;;;;;18.90;7.65;;;3.20;91.40;4.10;100232.00;;;;4885830;28;92784;-63
2022/03/22 04:17:18;;;;;;;16.45;7.35;;;3.20;91.10;4.10;100229.00;;;;4881478;28;92563;-64
2022/03/22 04:19:45;;;;;;;18.33;6.40;;;3.20;90.70;4.20;100220.00;;;;4899343;28;93399;-65
2022/03/22 04:22:11;;;;;;;16.75;6.60;;;3.30;90.60;4.30;100222.00;;;;4881379;28;92048;-64
2022/03/22 04:24:38;;;;;;;16.42;6.80;;;3.40;90.60;4.30;100212.00;;;;4872146;28;92318;-64
2022/03/22 04:32:44;;;;;;;14.45;5.80;;;3.50;90.50;4.60;100220.00;;;;4883638;28;92396;-65
2022/03/22 04:35:17;;;;;;;14.95;6.57;;;3.60;90.10;4.80;100220.00;;;;4896503;28;92342;-64
2022/03/22 04:37:49;;;;;;;17.05;6.60;;;3.70;89.80;4.90;100211.00;;;;4899411;28;94042;-63
2022/03/22 04:40:17;;;;;;;18.77;6.72;;;3.80;90.00;4.90;100219.00;;;;4877049;28;94341;-64
2022/03/22 04:42:55;;;;;;;13.48;5.35;;;3.80;89.30;4.90;100224.00;;;;4892135;28;92503;-64
2022/03/22 04:45:22;;;;;;;16.60;5.90;;;3.90;89.60;5.10;100224.00;;;;4876876;28;92538;-64
2022/03/22 04:47:49;;;;;;;18.52;6.03;;;3.90;88.80;5.10;100218.00;;;;4850714;28;92938;-64
2022/03/22 04:50:17;;;;;;;14.68;5.65;;;4.00;88.90;5.20;100218.00;;;;4890877;28;93844;-63
2022/03/22 04:58:14;;;;;;;18.92;6.70;;;4.10;88.60;5.20;100240.00;;;;4892059;28;93069;-64
2022/03/22 05:00:40;;;;;;;17.00;6.18;;;4.20;88.60;5.20;100228.00;;;;4891556;28;92237;-65
2022/03/22 05:03:08;;;;;;;17.67;6.70;;;4.10;88.90;5.20;100232.00;;;;4899393;28;93571;-65
2022/03/22 05:08:19;;;;;;;16.73;5.35;;;4.10;88.90;4.90;100219.00;;;;4891163;28;93067;-65
2022/03/22 05:10:46;;;;;;;17.38;6.22;;;4.10;88.80;4.60;100228.00;;;;4895186;28;91998;-65
2022/03/22 05:13:12;;;;;;;15.60;6.00;;;4.00;89.00;4.30;100228.00;;;;4871575;28;92049;-63
2022/03/22 05:15:38;;;;;;;17.80;6.65;;;4.00;89.70;4.00;100234.00;;;;4902289;28;92255;-65
2022/03/22 05:18:05;;;;;;;12.02;5.88;;;3.90;89.50;3.80;100227.00;;;;4901981;28;93696;-65
2022/03/22 05:20:31;;;;;;;11.82;5.95;;;3.90;89.70;3.70;100224.00;;;;4892225;28;93297;-65
2022/03/22 05:22:58;;;;;;;18.50;6.70;;;3.90;90.10;3.60;100219.00;;;;4896895;28;92141;-64
2022/03/22 05:25:30;;;;;;;15.32;5.78;;;3.90;90.20;3.50;100220.00;;;;4851434;28;92152;-64
2022/03/22 05:28:02;;;;;;;18.08;6.18;;;3.80;90.20;3.60;100218.00;;;;4884106;28;94838;-65
2022/03/22 05:30:29;;;;;;;17.38;6.22;;;3.80;90.40;3.60;100220.00;;;;4891895;28;93190;-65
2022/03/22 05:32:56;;;;;;;14.45;5.75;;;3.90;90.20;3.70;100219.00;;;;4884226;28;92072;-64
2022/03/22 05:35:23;;;;;;;22.05;6.90;;;4.00;90.20;3.70;100219.00;;;;4894663;28;92468;-64
2022/03/22 05:37:51;;;;;;;17.98;6.68;;;4.00;90.10;3.80;100220.00;;;;4901899;28;92716;-64
2022/03/22 05:40:17;;;;;;;18.45;6.03;;;4.10;90.10;3.80;100222.00;;;;4884318;28;92410;-64
2022/03/22 05:42:44;;;;;;;14.32;5.80;;;4.10;90.40;3.80;100221.00;;;;4883662;28;92090;-63
2022/03/22 05:45:11;;;;;;;18.10;6.20;;;4.20;90.00;3.80;100226.00;;;;4893293;28;91243;-64
2022/03/22 05:47:39;;;;;;;16.35;6.38;;;4.10;89.90;3.90;100237.00;;;;4884080;28;93768;-64
2022/03/22 05:50:07;;;;;;;15.68;6.45;;;4.20;89.90;4.00;100237.00;;;;4888422;28;92389;-63
2022/03/22 05:52:33;;;;;;;15.80;6.75;;;4.30;89.90;4.00;100236.00;;;;4889517;28;93295;-64
2022/03/22 05:54:59;;;;;;;17.65;5.97;;;4.30;89.80;4.10;100232.00;;;;4883699;28;92710;-63
2022/03/22 05:57:26;;;;;;;17.02;6.57;;;4.40;89.30;4.20;100238.00;;;;4894463;28;93055;-65
2022/03/22 05:59:52;;;;;;;16.70;5.93;;;4.50;89.40;4.30;100238.00;;;;4880961;28;92361;-65
2022/03/22 06:02:18;;;;;;;15.07;6.53;;;4.60;88.80;4.40;100231.00;;;;4892604;28;92480;-64
2022/03/22 06:04:44;;;;;;;17.20;6.05;;;4.70;88.80;4.50;100230.00;;;;4892107;28;92120;-63
2022/03/22 06:07:10;;;;;;;13.15;4.85;;;4.80;88.20;4.60;100224.00;;;;4893842;28;94237;-62
2022/03/22 06:09:37;;;;;;;13.73;5.22;;;4.80;87.80;4.70;100227.00;;;;4873841;28;94951;-64
2022/03/22 06:12:06;;;;;;;14.70;4.97;;;4.90;87.50;4.70;100223.00;;;;4895172;28;92501;-64
2022/03/22 06:14:32;;;;;;;11.95;4.97;;;5.00;87.20;4.90;100217.00;;;;4897171;28;92492;-64
2022/03/22 06:16:59;;;;;;;14.15;5.40;;;5.10;87.30;4.90;100220.00;;;;4901305;28;93707;-64
2022/03/22 06:19:26;;;;;;;13.50;5.07;;;5.20;86.80;5.00;100213.00;;;;4877849;28;93905;-64
2022/03/22 06:21:52;;;;;;;16.50;5.03;;;5.30;86.40;5.10;100221.00;;;;4898837;28;91993;-64
2022/03/22 06:24:18;;;;;;;18.15;5.90;;;5.40;86.20;5.20;100218.00;;;;4886279;28;92146;-64
2022/03/22 06:26:44;;;;;;;11.30;5.03;;;5.50;85.70;5.30;100224.00;;;;4872167;28;92433;-63
2022/03/22 06:29:10;;;;;;;11.65;4.82;;;5.60;85.20;5.40;100213.00;;;;4895609;28;92394;-63
2022/03/22 06:31:37;;;;;;;14.15;4.50;;;5.60;84.80;5.50;100202.00;;;;4879643;28;92403;-64
2022/03/22 06:34:04;;;;;;;13.85;4.82;;;5.70;84.10;5.60;100203.00;;;;4887712;28;91305;-63
2022/03/22 06:36:30;;;;;;;15.93;5.30;;;5.80;83.50;5.70;100216.00;;;;4896682;28;92987;-63
2022/03/22 06:38:56;;;;;;;18.38;5.63;;;5.90;84.20;5.90;100217.00;;;;4901101;28;93485;-64
2022/03/22 06:41:22;;;;;;;17.48;6.45;;;6.10;83.80;6.00;100222.00;;;;4881034;28;92968;-63
2022/03/22 06:43:49;;;;;;;16.80;5.60;;;6.30;83.90;6.10;100206.00;;;;4885512;28;92032;-63
2022/03/22 06:46:15;;;;;;;17.88;5.32;;;6.40;84.00;6.20;100218.00;;;;4865221;28;94324;-64
2022/03/22 06:48:42;;;;;;;16.92;6.13;;;6.50;83.40;6.40;100210.00;;;;4865156;28;93521;-63
2022/03/22 06:51:08;;;;;;;14.43;4.90;;;6.60;82.60;6.50;100217.00;;;;4883285;28;92029;-64
2022/03/22 06:53:35;;;;;;;13.43;5.82;;;6.70;82.10;6.60;100206.00;;;;4883028;28;92834;-62
2022/03/22 06:56:01;;;;;;;13.13;4.32;;;6.80;81.30;6.60;100216.00;;;;4889698;28;92828;-63
2022/03/22 06:58:29;;;;;;;11.73;4.63;;;6.90;80.70;6.70;100204.00;;;;4891670;28;92325;-63
2022/03/22 07:00:55;;;;;;;12.20;4.65;;;6.90;79.90;6.80;100215.00;;;;4883186;28;92372;-64
2022/03/22 07:03:21;;;;;;;12.35;3.95;;;7.00;79.40;6.80;100209.00;;;;4889335;28;92133;-64
2022/03/22 07:05:47;;;;;;;11.63;3.78;;;7.00;79.10;6.90;100200.00;;;;4887455;28;93650;-64
2022/03/22 07:08:15;;;;;;;14.07;3.67;;;7.10;78.80;7.00;100205.00;;;;4880159;28;92880;-64
2022/03/22 07:10:41;;;;;;;14.43;4.45;;;7.20;78.60;7.10;100202.00;;;;4891948;28;92467;-63
2022/03/22 07:13:11;;;;;;;20.33;4.43;;;7.20;79.30;7.20;100199.00;;;;4898161;28;92244;-63
2022/03/22 07:15:38;;;;;;;13.27;4.00;;;7.40;79.50;7.30;100197.00;;;;4900143;28;92615;-65
2022/03/22 07:18:12;;;;;;;15.32;4.18;;;7.50;79.00;7.40;100194.00;;;;4883945;28;92292;-65
2022/03/22 07:20:39;;;;;;;13.30;4.03;;;7.60;78.70;7.60;100193.00;;;;4879284;28;92221;-65
2022/03/22 07:23:05;;;;;;;15.05;4.10;;;7.70;77.70;7.70;100187.00;;;;4900710;28;91532;-66
2022/03/22 07:25:33;;;;;;;13.38;3.60;;;7.90;77.10;7.80;100172.00;;;;4887070;28;93618;-66
2022/03/22 07:28:00;;;;;;;13.48;3.83;;;8.00;75.50;7.90;100179.00;;;;4879861;28;92339;-66
2022/03/22 07:30:26;;;;;;;14.57;4.13;;;8.10;74.40;8.00;100187.00;;;;4890528;28;93046;-65
2022/03/22 07:32:54;;;;;;;7.75;3.53;;;8.20;74.10;8.10;100190.00;;;;4890866;28;92072;-65
2022/03/22 07:35:21;;;;;;;12.65;2.67;;;8.20;72.80;8.10;100182.00;;;;4872440;28;92589;-65
2022/03/22 07:37:48;;;;;;;15.35;3.22;;;8.30;70.90;8.10;100171.00;;;;4881820;28;93382;-65
2022/03/22 07:40:15;;;;;;;9.43;3.00;;;8.30;69.30;8.20;100176.00;;;;4882411;28;92416;-64
2022/03/22 07:42:41;;;;;;;9.48;2.83;;;8.30;69.10;8.20;100176.00;;;;4882611;28;92181;-65
2022/03/22 07:48:04;;;;;;;9.60;2.80;;;8.40;65.70;8.40;100170.00;;;;4884155;28;92385;-65
2022/03/22 07:53:15;;;;;;;9.00;2.65;;;8.50;60.30;8.40;100186.00;;;;4875326;28;92226;-62
2022/03/22 07:55:43;;;;;;;8.35;2.75;;;8.50;61.10;8.50;100174.00;;;;4892358;28;94790;-63
2022/03/22 07:58:11;;;;;;;8.98;2.63;;;8.60;58.30;8.50;100179.00;;;;4889226;28;93150;-63
2022/03/22 08:00:41;;;;;;;9.02;2.58;;;8.70;57.50;8.50;100190.00;;;;4873760;28;92229;-63
2022/03/22 08:03:10;;;;;;;8.32;2.10;;;8.70;55.20;8.50;100180.00;;;;4886831;28;92072;-64
2022/03/22 08:05:38;;;;;;;8.63;2.50;;;8.60;55.10;8.60;100190.00;;;;4893559;28;93056;-64
2022/03/22 08:08:05;;;;;;;7.22;2.10;;;8.70;56.30;8.60;100202.00;;;;4893301;28;92664;-64
2022/03/22 08:10:32;;;;;;;8.63;2.47;;;8.70;56.10;8.60;100196.00;;;;4882281;28;92132;-64
2022/03/22 08:12:59;;;;;;;6.50;2.25;;;8.70;57.20;8.60;100195.00;;;;4893196;28;91325;-65
2022/03/22 08:15:26;;;;;;;6.55;2.10;;;8.70;57.80;8.60;100191.00;;;;4880632;28;92897;-65
2022/03/22 08:17:52;;;;;;;10.77;2.50;;;8.70;58.90;8.70;100185.00;;;;4880807;28;92491;-65
2022/03/22 08:20:18;;;;;;;11.13;2.65;;;8.80;60.70;8.80;100170.00;;;;4890786;28;93425;-65
2022/03/22 08:23:06;;;;;;;8.55;2.50;;;8.90;62.10;8.80;100182.00;;;;4882654;28;91961;-64
2022/03/22 08:25:39;;;;;;;9.88;2.97;;;8.90;62.10;8.90;100165.00;;;;4887185;28;92219;-65
2022/03/22 08:28:08;;;;;;;9.75;3.20;;;9.00;62.60;9.00;100166.00;;;;4879150;28;92578;-64
2022/03/22 08:30:36;;;;;;;7.80;2.70;;;9.10;61.90;9.10;100163.00;;;;4880063;28;92470;-64
2022/03/22 08:33:07;;;;;;;11.88;2.50;;;9.20;62.10;9.10;100164.00;;;;4890311;28;92449;-65
2022/03/22 08:35:36;;;;;;;12.05;2.38;;;9.30;62.10;9.20;100162.00;;;;4891874;28;92612;-65
2022/03/22 08:38:02;;;;;;;8.30;2.35;;;9.30;62.40;9.20;100152.00;;;;4865223;29;92337;-65
2022/03/22 08:40:29;;;;;;;5.07;1.90;;;9.30;62.10;9.20;100159.00;;;;4858596;28;92191;-65
2022/03/22 08:42:57;;;;;;;5.85;1.92;;;9.40;62.70;9.30;100157.00;;;;4884751;28;92381;-66
2022/03/22 08:45:27;;;;;;;4.90;1.90;;;9.40;62.70;9.40;100143.00;;;;4892137;28;94668;-66
2022/03/22 08:47:55;;;;;;;7.82;1.65;;;9.50;62.20;9.50;100153.00;;;;4898472;28;94576;-65
2022/03/22 08:50:23;;;;;;;9.73;2.10;;;9.60;62.10;9.60;100145.00;;;;4896999;28;91952;-65
2022/03/22 08:52:50;;;;;;;9.90;2.45;;;9.70;63.40;9.70;100138.00;;;;4885563;28;92471;-66
2022/03/22 08:55:18;;;;;;;8.07;1.95;;;9.80;63.40;9.80;100138.00;;;;4896140;28;93237;-64
2022/03/22 08:57:47;;;;;;;9.05;2.10;;;9.90;63.60;9.90;100126.00;;;;4885665;28;92404;-66
2022/03/22 09:00:15;;;;;;;10.02;2.20;;;10.00;61.50;10.00;100124.00;;;;4884701;28;92084;-66
2022/03/22 09:02:45;;;;;;;5.57;1.65;;;10.00;61.50;10.00;100116.00;;;;4875613;28;92150;-65
2022/03/22 09:08:00;;;;;;;6.53;2.30;;;10.00;60.00;10.00;100110.00;;;;4892028;28;92452;-65
2022/03/22 09:10:29;;;;;;;8.23;2.20;;;10.10;60.70;10.20;100123.00;;;;4890723;28;94043;-65
2022/03/22 09:12:56;;;;;;;8.15;1.92;;;10.20;60.80;10.30;100101.00;;;;4882267;28;92313;-65
2022/03/22 09:15:26;;;;;;;6.97;1.63;;;10.30;60.30;10.30;100107.00;;;;4886368;28;92942;-65
2022/03/22 09:17:55;;;;;;;5.15;1.45;;;10.40;59.60;10.40;100106.00;;;;4850034;28;92790;-65
2022/03/22 09:20:22;;;;;;;5.95;1.27;;;10.50;57.80;10.40;100093.00;;;;4885663;28;92285;-65
2022/03/22 09:22:51;;;;;;;8.90;1.52;;;10.50;58.50;10.50;100086.00;;;;4900796;28;92421;-66
2022/03/22 09:25:21;;;;;;;7.50;1.70;;;10.50;57.50;10.50;100107.00;;;;4876048;28;93730;-65
2022/03/22 09:27:47;;;;;;;6.10;1.30;;;10.50;56.80;10.50;100093.00;;;;4896258;28;93509;-65
2022/03/22 09:30:14;;;;;;;5.03;1.30;;;10.50;56.00;10.50;100111.00;;;;4892960;28;92320;-66
2022/03/22 09:32:44;;;;;;;5.15;1.30;;;10.50;56.20;10.60;100089.00;;;;4887762;28;92451;-66
2022/03/22 09:35:13;;;;;;;8.13;1.73;;;10.60;56.00;10.70;100090.00;;;;4888268;28;94862;-66
2022/03/22 09:37:41;;;;;;;9.02;1.50;;;10.70;55.70;10.70;100091.00;;;;4886394;28;93716;-66
2022/03/22 09:40:11;;;;;;;4.90;1.85;;;10.80;54.80;10.80;100091.00;;;;4886344;28;92174;-66
2022/03/22 09:42:42;;;;;;;3.72;1.90;;;10.80;54.50;10.80;100077.00;;;;4894077;28;92395;-67
2022/03/22 09:45:15;;;;;;;6.53;1.80;;;10.80;55.30;10.70;100081.00;;;;4894394;28;92544;-66
2022/03/22 09:47:42;;;;;;;5.88;1.70;;;10.70;54.80;10.70;100089.00;;;;4896044;28;92277;-66
2022/03/22 09:50:10;;;;;;;8.82;1.90;;;10.70;54.70;10.70;100078.00;;;;4896767;28;92086;-66
2022/03/22 09:52:38;;;;;;;6.85;1.88;;;10.70;54.80;10.80;100075.00;;;;4900278;28;91273;-66
2022/03/22 09:55:08;;;;;;;6.80;1.50;;;10.80;55.00;10.90;100083.00;;;;4881926;28;93120;-66
2022/03/22 09:57:36;;;;;;;5.30;1.60;;;10.90;54.90;10.90;100076.00;;;;4884985;28;93832;-66
2022/03/22 10:00:05;;;;;;;4.10;1.42;;;11.00;55.10;11.00;100080.00;;;;4885852;28;92923;-65
2022/03/22 10:02:38;;;;;;;3.92;1.30;;;11.00;51.50;11.00;100079.00;;;;4888889;28;92059;-67
2022/03/22 10:05:06;;;;;;;4.20;1.30;;;11.10;50.00;11.00;100090.00;;;;4897442;28;94117;-66
2022/03/22 10:07:32;;;;;;;4.90;1.08;;;11.10;43.90;11.10;100068.00;;;;4896201;28;93050;-67
2022/03/22 10:10:02;;;;;;;6.82;1.27;;;11.10;46.60;11.20;100070.00;;;;4890025;28;91966;-67
2022/03/22 10:12:36;;;;;;;4.10;0.95;;;11.20;46.00;11.20;100077.00;;;;4893645;28;92637;-66
2022/03/22 10:15:13;;;;;;;5.70;0.90;;;11.20;43.50;11.30;100076.00;;;;4895910;28;92665;-67
2022/03/22 10:17:40;;;;;;;4.55;1.20;;;11.30;43.20;11.30;100070.00;;;;4902379;28;92529;-66
2022/03/22 10:20:10;;;;;;;3.67;1.13;;;11.40;39.60;11.30;100065.00;;;;4892464;28;92168;-67
2022/03/22 10:22:37;;;;;;;4.88;1.30;;;11.40;33.80;11.30;100074.00;;;;4884067;28;91991;-66
2022/03/22 10:25:08;;;;;;;3.53;0.85;;;11.30;32.20;11.20;100076.00;;;;4884678;28;94856;-67
2022/03/22 10:27:38;;;;;;;2.40;0.93;;;11.20;32.10;11.20;100070.00;;;;4891095;28;94368;-66
2022/03/22 10:30:08;;;;;;;3.35;1.10;;;11.20;34.00;11.20;100061.00;;;;4892133;28;92442;-66
2022/03/22 10:32:37;;;;;;;2.80;1.00;;;11.20;33.50;11.20;100087.00;;;;4887583;28;92496;-66
2022/03/22 10:35:31;;;;;;;6.60;1.10;;;11.20;32.20;11.20;100065.00;;;;4875126;28;93560;-66
2022/03/22 10:38:09;;;;;;;6.40;1.15;;;11.20;31.70;11.20;100070.00;;;;4897037;28;93779;-66
2022/03/22 10:40:40;;;;;;;6.35;1.10;;;11.20;31.50;11.20;100052.00;;;;4882954;28;92154;-66
2022/03/22 10:43:13;;;;;;;6.83;1.20;;;11.20;31.50;11.20;100057.00;;;;4880686;28;91914;-65
2022/03/22 10:46:00;;;;;;;7.70;1.38;;;11.30;31.80;11.30;100056.00;;;;4892928;28;92485;-66
2022/03/22 10:48:38;;;;;;;5.38;1.45;;;11.40;33.40;11.40;100080.00;;;;4898063;28;92334;-65
2022/03/22 10:51:06;;;;;;;2.10;1.23;;;11.40;31.00;11.30;100090.00;;;;4891328;28;93860;-65
2022/03/22 10:53:35;;;;;;;8.88;1.15;;;11.30;29.50;11.30;100064.00;;;;4892894;28;92415;-65
2022/03/22 10:56:04;;;;;;;2.60;1.00;;;11.30;31.50;11.30;100058.00;;;;4887924;28;92611;-66
2022/03/22 10:58:32;;;;;;;6.18;1.30;;;11.30;30.00;11.20;100061.00;;;;4888639;28;92934;-65
2022/03/22 11:01:03;;;;;;;3.00;1.10;;;11.20;30.40;11.20;100057.00;;;;4899542;28;92297;-66
2022/03/22 11:03:32;;;;;;;2.10;0.70;;;11.20;30.20;11.20;100053.00;;;;4867255;28;92456;-67
2022/03/22 11:06:03;;;;;;;3.58;1.00;;;11.20;30.00;11.20;100048.00;;;;4883523;28;92627;-67
2022/03/22 11:08:29;;;;;;;1.88;0.70;;;11.20;31.00;11.20;100040.00;;;;4858425;28;93786;-67
2022/03/22 11:10:56;;;;;;;3.67;0.90;;;11.10;30.00;11.20;100035.00;;;;4873365;28;93122;-68
2022/03/22 11:13:23;;;;;;;2.33;0.90;;;11.20;30.00;11.20;100037.00;;;;4896828;28;92036;-68
2022/03/22 11:15:51;;;;;;;2.40;1.00;;;11.20;29.70;11.30;100038.00;;;;4884415;28;93961;-67
2022/03/22 11:18:20;;;;;;;3.85;0.70;;;11.30;30.90;11.30;100039.00;;;;4880533;28;93367;-65
2022/03/22 11:20:51;;;;;;;2.15;0.95;;;11.30;31.10;11.30;100037.00;;;;4883382;28;92180;-66
2022/03/22 11:23:23;;;;;;;4.60;1.00;;;11.30;30.60;11.30;100031.00;;;;4880685;28;92114;-65
2022/03/22 11:25:50;;;;;;;4.68;1.30;;;11.30;31.40;11.30;100024.00;;;;4888518;28;93485;-65
2022/03/22 11:28:23;;;;;;;3.35;0.82;;;11.40;32.10;11.40;100035.00;;;;4894818;28;92041;-65